Time;durP1;ratioP1;P1;durP2;ratioP2;P2;SDS_P1;SDS_P2;PMS_P1;PMS_P2;Temp;Humidity;BMP_temperature;BMP_pressure;BME280_temperature;BME280_humidity;BME280_pressure;Samples;Min_cycle;Max_cycle;Signal;HPM_P1;HPM_P2
2022/05/14 00:00:58;;;;;;;6.30;3.80;;;;;;;18.86;44.98;100179.14;117371;1187;21836;-55
2022/05/14 00:03:28;;;;;;;5.40;3.50;;;;;;;18.85;44.94;100177.05;117330;1186;23541;-55
2022/05/14 00:05:59;;;;;;;7.40;3.80;;;;;;;18.86;45.02;100181.07;117554;1185;23868;-49
2022/05/14 00:08:28;;;;;;;8.60;3.90;;;;;;;18.90;45.19;100186.02;117458;1185;24878;-55
2022/05/14 00:13:45;;;;;;;6.30;4.10;;;;;;;18.92;45.14;100190.22;117420;1186;24198;-49
2022/05/14 00:16:13;;;;;;;7.70;4.10;;;;;;;18.90;45.13;100197.58;117525;1185;24147;-55
2022/05/14 00:18:43;;;;;;;6.80;3.80;;;;;;;18.87;45.17;100198.61;117254;1186;22920;-49
2022/05/14 00:21:12;;;;;;;6.30;4.10;;;;;;;18.82;45.13;100195.50;117355;1186;22919;-55
2022/05/14 00:23:40;;;;;;;10.70;4.30;;;;;;;18.78;45.30;100195.36;117483;1180;23683;-55
2022/05/14 00:26:09;;;;;;;9.60;4.20;;;;;;;18.76;45.28;100197.05;117495;1183;23528;-55
2022/05/14 00:28:37;;;;;;;6.50;4.40;;;;;;;18.78;45.37;100201.17;117280;1185;23637;-54
2022/05/14 00:31:05;;;;;;;5.90;4.20;;;;;;;18.80;45.40;100209.48;117324;1181;22470;-56
2022/05/14 00:33:33;;;;;;;5.50;4.10;;;;;;;18.80;45.36;100214.08;117540;1186;24187;-55
2022/05/14 00:36:02;;;;;;;6.40;4.30;;;;;;;18.80;45.47;100216.40;117446;1184;23577;-49
2022/05/14 00:38:31;;;;;;;8.50;4.40;;;;;;;18.78;45.27;100218.45;117355;1186;23621;-55
2022/05/14 00:41:02;;;;;;;6.80;4.70;;;;;;;18.73;45.47;100219.22;117390;1185;24159;-49
2022/05/14 00:43:32;;;;;;;8.10;4.60;;;;;;;18.69;45.52;100220.84;117337;1185;23544;-48
2022/05/14 00:46:08;;;;;;;8.90;4.80;;;;;;;18.69;45.50;100225.98;117367;1185;21893;-49
2022/05/14 00:48:40;;;;;;;7.10;4.60;;;;;;;18.68;45.57;100238.46;117323;1186;21992;-49
2022/05/14 00:51:12;;;;;;;7.20;4.80;;;;;;;18.69;45.67;100245.16;117359;1185;21993;-49
2022/05/14 00:53:47;;;;;;;8.00;4.80;;;;;;;18.69;45.65;100254.77;117416;1184;21850;-48
2022/05/14 00:56:19;;;;;;;13.70;5.50;;;;;;;18.68;45.74;100259.79;117400;1185;24156;-48
2022/05/14 00:58:51;;;;;;;9.80;5.50;;;;;;;18.71;45.77;100268.57;117442;1184;23633;-55
2022/05/14 01:01:20;;;;;;;12.10;5.70;;;;;;;18.70;45.70;100279.97;117530;1186;23538;-55
2022/05/14 01:03:48;;;;;;;6.80;5.10;;;;;;;18.68;45.79;100272.59;117412;1185;23554;-55
2022/05/14 01:06:18;;;;;;;12.80;5.70;;;;;;;18.69;45.84;100263.48;117337;1186;23541;-50
2022/05/14 01:08:47;;;;;;;6.60;5.00;;;;;;;18.70;45.87;100275.89;117394;1185;21855;-55
2022/05/14 01:11:19;;;;;;;10.10;5.40;;;;;;;18.71;45.96;100279.58;117424;1185;22918;-50
2022/05/14 01:13:47;;;;;;;10.00;5.60;;;;;;;18.73;45.98;100275.20;117169;1185;23551;-56
2022/05/14 01:16:16;;;;;;;6.60;4.70;;;;;;;18.74;45.92;100273.58;117402;1182;23563;-56
2022/05/14 01:18:44;;;;;;;8.70;5.30;;;;;;;18.72;45.96;100270.62;117458;1185;23544;-55
2022/05/14 01:21:33;;;;;;;6.70;4.80;;;;;;;18.71;45.99;100276.20;117398;1185;23637;-55
2022/05/14 01:26:51;;;;;;;10.70;5.60;;;;;;;18.69;46.16;100267.02;117451;1185;24153;-55
2022/05/14 01:29:22;;;;;;;8.80;4.90;;;;;;;18.72;46.19;100258.02;117432;1185;23542;-56
2022/05/14 01:31:51;;;;;;;8.50;5.30;;;;;;;18.78;46.33;100254.00;117520;1185;22643;-50
2022/05/14 01:34:27;;;;;;;8.40;5.20;;;;;;;18.81;46.24;100253.15;117389;1185;21852;-50
2022/05/14 01:36:56;;;;;;;6.00;4.90;;;;;;;18.83;46.32;100250.73;117500;1185;21970;-50
2022/05/14 01:39:25;;;;;;;7.50;5.10;;;;;;;18.83;46.24;100256.77;117413;1184;21926;-56
2022/05/14 01:41:53;;;;;;;9.30;5.10;;;;;;;18.80;46.39;100248.39;117357;1186;21893;-55
2022/05/14 01:44:22;;;;;;;6.80;5.00;;;;;;;18.77;46.33;100246.44;117432;1186;23563;-50
2022/05/14 01:46:51;;;;;;;6.80;4.70;;;;;;;18.74;46.33;100249.75;117387;1185;22082;-55
2022/05/14 01:49:19;;;;;;;8.40;5.40;;;;;;;18.71;46.38;100253.41;117407;1185;21850;-56
2022/05/14 01:51:48;;;;;;;8.90;5.00;;;;;;;18.69;46.43;100258.70;117358;1186;21912;-56
2022/05/14 01:54:16;;;;;;;9.70;5.40;;;;;;;18.67;46.48;100255.77;117086;1187;24152;-55
2022/05/14 01:56:45;;;;;;;9.40;5.90;;;;;;;18.65;46.46;100252.51;117341;1186;23338;-56
2022/05/14 01:59:14;;;;;;;9.60;6.00;;;;;;;18.65;46.53;100250.52;117393;1185;23475;-50
2022/05/14 02:01:42;;;;;;;9.30;5.60;;;;;;;18.65;46.64;100250.16;117385;1183;22918;-55
2022/05/14 02:04:13;;;;;;;9.00;5.40;;;;;;;18.68;46.73;100250.93;117407;1186;22605;-56
2022/05/14 02:06:42;;;;;;;8.50;5.90;;;;;;;18.71;46.72;100243.33;117474;1185;22796;-56
2022/05/14 02:09:12;;;;;;;11.10;6.50;;;;;;;18.72;46.92;100245.39;117386;1185;21870;-56
2022/05/14 02:11:41;;;;;;;9.30;6.50;;;;;;;18.72;46.88;100249.64;117445;1185;21840;-56
2022/05/14 02:14:11;;;;;;;10.80;6.20;;;;;;;18.72;46.89;100245.20;117546;1185;21874;-56
2022/05/14 02:16:39;;;;;;;10.40;6.30;;;;;;;18.72;46.94;100237.03;117439;1186;21850;-56
2022/05/14 02:19:07;;;;;;;7.50;6.40;;;;;;;18.70;46.87;100236.97;117337;1185;23567;-56
2022/05/14 02:21:36;;;;;;;12.00;6.50;;;;;;;18.70;46.99;100235.56;117329;1186;22649;-56
2022/05/14 02:24:05;;;;;;;7.80;6.20;;;;;;;18.70;46.97;100235.55;117447;1185;22897;-56
2022/05/14 02:26:33;;;;;;;20.40;7.20;;;;;;;18.70;47.04;100233.77;117412;1185;23466;-55
2022/05/14 02:29:02;;;;;;;10.10;7.00;;;;;;;18.71;47.09;100229.28;117361;1185;23542;-56
2022/05/14 02:31:31;;;;;;;11.00;6.40;;;;;;;18.74;47.18;100224.34;117454;1185;23682;-55
2022/05/14 02:34:00;;;;;;;13.00;6.70;;;;;;;18.76;47.23;100210.92;117426;1185;22993;-56
2022/05/14 02:36:28;;;;;;;9.40;6.00;;;;;;;18.76;47.15;100212.49;117386;1185;24137;-56
2022/05/14 02:38:56;;;;;;;9.70;6.80;;;;;;;18.77;47.17;100217.64;117403;1185;23563;-56
2022/05/14 02:41:25;;;;;;;13.90;6.50;;;;;;;18.76;47.31;100207.33;117531;1182;21853;-56
2022/05/14 02:43:54;;;;;;;10.50;6.10;;;;;;;18.76;47.23;100205.63;117502;1185;23650;-55
2022/05/14 02:46:22;;;;;;;9.70;6.20;;;;;;;18.75;47.34;100196.41;117443;1186;21857;-56
2022/05/14 02:48:51;;;;;;;9.70;6.00;;;;;;;18.74;47.32;100207.27;117410;1186;21838;-55
2022/05/14 02:51:19;;;;;;;10.60;5.70;;;;;;;18.76;47.43;100200.60;117515;1186;22810;-55
2022/05/14 02:53:48;;;;;;;11.10;6.50;;;;;;;18.75;47.38;100187.66;117354;1184;21850;-55
2022/05/14 02:56:17;;;;;;;9.10;6.30;;;;;;;18.73;47.49;100188.48;117380;1186;21890;-55
2022/05/14 03:01:33;;;;;;;9.80;6.20;;;;;;;18.71;47.50;100196.40;117407;1184;23534;-55
2022/05/14 03:04:02;;;;;;;12.50;7.00;;;;;;;18.72;47.42;100199.17;117300;1185;22916;-55
2022/05/14 03:06:30;;;;;;;11.60;6.50;;;;;;;18.75;47.44;100197.46;117497;1185;23538;-50
2022/05/14 03:08:59;;;;;;;7.70;5.80;;;;;;;18.76;47.51;100204.31;117510;1185;21845;-55
2022/05/14 03:11:29;;;;;;;10.30;7.00;;;;;;;18.77;47.57;100204.11;117575;1185;23541;-50
2022/05/14 03:13:58;;;;;;;13.40;7.50;;;;;;;18.79;47.64;100194.42;117307;1186;21846;-55
2022/05/14 03:16:26;;;;;;;10.10;6.20;;;;;;;18.79;47.57;100192.08;117583;1185;23443;-55
2022/05/14 03:18:54;;;;;;;7.70;6.00;;;;;;;18.80;47.65;100189.36;117534;1186;23528;-56
2022/05/14 03:21:23;;;;;;;9.40;6.50;;;;;;;18.80;47.66;100184.02;117424;1185;21876;-50
2022/05/14 03:23:52;;;;;;;8.50;6.30;;;;;;;18.79;47.62;100174.30;117382;1186;23462;-56
2022/05/14 03:26:20;;;;;;;9.60;6.50;;;;;;;18.79;47.67;100174.48;117472;1185;21858;-55
2022/05/14 03:28:48;;;;;;;15.30;7.50;;;;;;;18.80;47.74;100161.33;117296;1186;23443;-50
2022/05/14 03:31:16;;;;;;;10.80;6.50;;;;;;;18.78;47.79;100157.83;117336;1185;23654;-50
2022/05/14 03:33:45;;;;;;;10.00;6.80;;;;;;;18.78;47.74;100153.02;117547;1185;24696;-51
2022/05/14 03:36:14;;;;;;;9.30;6.40;;;;;;;18.78;47.85;100149.67;117439;1185;21859;-50
2022/05/14 03:38:42;;;;;;;12.20;6.50;;;;;;;18.79;47.87;100168.45;117381;1185;23466;-54
2022/05/14 03:41:10;;;;;;;10.90;7.10;;;;;;;18.80;47.84;100178.35;117334;1185;21892;-56
2022/05/14 03:43:39;;;;;;;10.20;7.20;;;;;;;18.83;47.83;100175.71;117354;1186;24162;-50
2022/05/14 03:46:07;;;;;;;12.00;6.60;;;;;;;18.85;47.94;100173.11;117285;1185;22376;-55
2022/05/14 03:48:36;;;;;;;9.00;5.70;;;;;;;18.88;47.93;100167.13;117407;1185;23544;-51
2022/05/14 03:51:05;;;;;;;12.10;6.50;;;;;;;18.90;48.03;100170.93;117447;1185;21846;-55
2022/05/14 03:53:36;;;;;;;14.00;7.80;;;;;;;18.95;48.02;100171.41;117520;1186;22912;-54
2022/05/14 03:56:05;;;;;;;14.00;7.00;;;;;;;19.01;48.11;100168.98;117517;1185;21843;-55
2022/05/14 03:58:33;;;;;;;11.30;6.40;;;;;;;19.06;48.09;100171.38;117451;1185;21853;-50
2022/05/14 04:01:03;;;;;;;10.40;7.20;;;;;;;19.10;48.03;100182.05;117387;1183;23566;-50
2022/05/14 04:03:32;;;;;;;10.50;6.50;;;;;;;19.13;48.13;100187.04;117388;1185;23691;-50
2022/05/14 04:06:05;;;;;;;8.50;6.80;;;;;;;19.17;48.12;100188.83;117337;1186;21839;-50
2022/05/14 04:08:33;;;;;;;10.80;6.60;;;;;;;19.18;48.20;100183.06;117348;1186;21919;-51
2022/05/14 04:11:02;;;;;;;10.20;6.70;;;;;;;19.25;48.21;100188.43;117455;1186;23666;-50
2022/05/14 04:13:30;;;;;;;10.40;6.20;;;;;;;19.30;48.27;100184.56;117472;1185;23438;-55
2022/05/14 04:15:59;;;;;;;14.50;6.50;;;;;;;19.34;48.23;100187.95;117431;1184;24169;-52
2022/05/14 04:18:28;;;;;;;11.80;7.90;;;;;;;19.36;48.26;100196.58;117425;1185;23541;-55
2022/05/14 04:20:58;;;;;;;11.40;7.40;;;;;;;19.39;48.25;100197.27;117413;1185;23541;-50
2022/05/14 04:23:28;;;;;;;8.20;6.70;;;;;;;19.46;48.26;100190.70;117403;1184;22214;-50
2022/05/14 04:25:57;;;;;;;10.00;6.90;;;;;;;19.52;48.41;100195.02;117377;1185;21986;-55
2022/05/14 04:28:26;;;;;;;11.20;7.70;;;;;;;19.59;48.38;100192.15;117208;1186;22923;-56
2022/05/14 04:30:54;;;;;;;11.60;6.90;;;;;;;19.67;48.47;100192.08;117344;1185;23544;-49
2022/05/14 04:33:24;;;;;;;8.90;7.10;;;;;;;19.75;48.51;100191.31;117427;1184;24132;-55
2022/05/14 04:35:52;;;;;;;8.90;7.40;;;;;;;19.77;48.48;100188.54;117417;1184;21913;-55
2022/05/14 04:38:21;;;;;;;11.10;6.70;;;;;;;19.75;48.40;100193.80;117479;1185;23557;-54
2022/05/14 04:40:49;;;;;;;9.50;6.30;;;;;;;19.76;48.45;100197.11;117400;1185;21850;-50
2022/05/14 04:43:18;;;;;;;11.00;7.10;;;;;;;19.80;48.49;100193.02;117487;1185;21962;-50
2022/05/14 04:45:46;;;;;;;9.40;6.60;;;;;;;19.84;48.49;100191.90;117427;1182;21848;-54
2022/05/14 04:48:15;;;;;;;8.60;6.20;;;;;;;19.90;48.64;100191.59;117431;1185;24228;-53
2022/05/14 04:50:44;;;;;;;8.40;6.80;;;;;;;20.00;48.71;100195.36;117317;1185;23572;-50
2022/05/14 04:53:13;;;;;;;11.10;6.80;;;;;;;20.07;48.68;100196.60;117305;1186;21883;-54
2022/05/14 04:55:42;;;;;;;9.40;6.70;;;;;;;20.13;48.73;100194.50;117401;1185;22157;-50
2022/05/14 04:58:11;;;;;;;9.30;6.40;;;;;;;20.17;48.69;100187.45;117417;1186;23554;-53
2022/05/14 05:00:45;;;;;;;8.00;6.10;;;;;;;20.21;48.65;100188.51;117318;1185;23471;-50
2022/05/14 05:03:17;;;;;;;11.50;6.90;;;;;;;20.21;48.63;100186.51;117357;1180;22915;-50
2022/05/14 05:05:50;;;;;;;8.30;6.00;;;;;;;20.22;48.68;100184.87;117355;1185;24145;-50
2022/05/14 05:08:19;;;;;;;9.50;6.20;;;;;;;20.25;48.74;100180.42;117336;1185;21855;-50
2022/05/14 05:10:48;;;;;;;10.40;5.60;;;;;;;20.30;48.79;100178.75;117375;1185;22922;-54
2022/05/14 05:13:25;;;;;;;10.70;5.90;;;;;;;20.36;48.82;100178.06;117385;1185;21930;-55
2022/05/14 05:15:54;;;;;;;11.30;6.70;;;;;;;20.43;48.86;100175.16;117394;1185;22919;-51
2022/05/14 05:18:24;;;;;;;9.70;5.80;;;;;;;20.52;48.98;100176.12;117362;1186;21851;-50
2022/05/14 05:20:53;;;;;;;7.70;5.60;;;;;;;20.66;49.07;100178.49;117418;1185;22917;-54
2022/05/14 05:23:22;;;;;;;10.00;5.70;;;;;;;20.79;49.00;100186.48;117443;1185;24149;-51
2022/05/14 05:25:51;;;;;;;8.00;5.10;;;;;;;20.89;49.01;100188.08;117531;1185;23540;-54
2022/05/14 05:28:20;;;;;;;6.50;5.00;;;;;;;20.98;48.96;100184.67;117454;1186;21850;-54
2022/05/14 05:30:48;;;;;;;10.40;5.40;;;;;;;21.08;48.96;100180.36;117413;1184;23436;-54
2022/05/14 05:33:22;;;;;;;5.70;4.60;;;;;;;21.19;49.11;100180.96;117474;1185;21850;-51
2022/05/14 05:35:52;;;;;;;6.50;4.80;;;;;;;21.31;49.08;100181.88;117516;1186;23696;-50
2022/05/14 05:38:20;;;;;;;7.40;5.00;;;;;;;21.45;49.12;100183.53;117377;1186;21853;-55
2022/05/14 05:40:51;;;;;;;10.90;4.90;;;;;;;21.60;49.06;100175.86;117284;1185;24234;-50
2022/05/14 05:43:20;;;;;;;;;;;;;;;21.73;49.08;100178.10;119495;1185;21794;-51
2022/05/14 05:45:49;;;;;;;8.60;5.00;;;;;;;21.85;49.12;100182.02;118317;1185;21851;-55
2022/05/14 05:48:18;;;;;;;7.50;4.70;;;;;;;21.97;49.11;100181.09;119395;1186;21772;-56
2022/05/14 05:50:48;;;;;;;7.20;3.80;;;;;;;22.07;49.02;100174.33;117474;1184;21891;-55
2022/05/14 05:53:17;;;;;;;6.10;3.50;;;;;;;22.11;48.92;100172.64;118865;1186;21892;-55
2022/05/14 05:58:33;;;;;;;4.80;3.40;;;;;;;22.18;48.86;100172.59;117598;1185;21862;-51
2022/05/14 06:01:01;;;;;;;5.80;3.20;;;;;;;22.25;48.87;100172.89;117404;1186;23537;-52
2022/05/14 06:03:31;;;;;;;9.00;3.90;;;;;;;22.35;48.78;100171.70;117547;1185;21866;-51
2022/05/14 06:06:01;;;;;;;7.70;4.30;;;;;;;22.43;48.83;100169.35;117521;1185;21864;-51
2022/05/14 06:08:29;;;;;;;6.00;4.20;;;;;;;22.52;48.93;100172.39;117450;1186;23114;-51
2022/05/14 06:10:57;;;;;;;5.80;3.80;;;;;;;22.62;48.92;100170.17;117637;1185;24213;-55
2022/05/14 06:13:25;;;;;;;5.60;3.30;;;;;;;22.71;49.01;100164.01;117400;1185;24259;-53
2022/05/14 06:15:54;;;;;;;5.40;3.40;;;;;;;22.83;49.20;100164.30;117319;1186;23557;-55
2022/05/14 06:18:23;;;;;;;8.00;3.50;;;;;;;22.97;49.13;100162.08;117316;1186;23542;-55
2022/05/14 06:20:53;;;;;;;7.90;3.70;;;;;;;23.11;49.17;100161.52;117381;1186;22916;-55
2022/05/14 06:23:21;;;;;;;4.30;2.90;;;;;;;23.22;49.06;100163.64;117442;1185;23699;-54
2022/05/14 06:25:49;;;;;;;7.30;4.40;;;;;;;23.30;48.96;100169.56;117464;1185;24175;-53
2022/05/14 06:28:18;;;;;;;5.90;3.50;;;;;;;23.37;48.87;100169.94;117460;1185;23573;-53
2022/05/14 06:30:47;;;;;;;6.90;3.60;;;;;;;23.46;48.84;100172.90;117465;1186;21852;-54
2022/05/14 06:33:20;;;;;;;5.60;3.50;;;;;;;23.55;48.79;100168.05;117334;1185;23640;-55
2022/05/14 06:35:49;;;;;;;13.10;3.70;;;;;;;23.60;48.62;100166.93;117397;1185;21859;-53
2022/05/14 06:38:19;;;;;;;8.40;4.00;;;;;;;23.62;48.69;100165.92;117486;1185;23437;-54
2022/05/14 06:40:50;;;;;;;5.60;3.50;;;;;;;23.66;48.60;100167.61;117356;1186;21842;-53
2022/05/14 06:43:19;;;;;;;6.90;3.50;;;;;;;23.70;48.67;100173.20;117392;1185;23541;-54
2022/05/14 06:45:47;;;;;;;6.80;3.70;;;;;;;23.67;48.36;100172.70;117369;1186;23537;-55
2022/05/14 06:48:21;;;;;;;5.30;3.40;;;;;;;23.69;48.45;100172.42;117377;1185;21963;-54
2022/05/14 06:50:50;;;;;;;5.90;3.90;;;;;;;23.76;48.67;100171.55;117301;1186;23462;-55
2022/05/14 06:53:19;;;;;;;5.70;3.90;;;;;;;23.94;48.84;100169.77;117043;1187;22037;-55
2022/05/14 06:55:51;;;;;;;8.10;4.40;;;;;;;24.12;48.85;100172.06;117373;1186;23668;-54
2022/05/14 06:58:23;;;;;;;6.10;3.70;;;;;;;24.27;48.80;100172.77;117228;1186;22831;-55
2022/05/14 07:00:51;;;;;;;6.00;3.60;;;;;;;24.39;48.96;100173.67;117350;1185;21918;-54
2022/05/14 07:08:54;;;;;;;4.20;3.10;;;;;;;24.92;49.02;100172.34;117413;1185;23544;-55
2022/05/14 07:11:24;;;;;;;6.80;3.80;;;;;;;25.03;48.68;100169.83;117414;1185;24159;-55
2022/05/14 07:13:56;;;;;;;8.50;3.40;;;;;;;25.13;48.75;100162.13;117358;1188;23534;-53
2022/05/14 07:16:25;;;;;;;6.30;4.20;;;;;;;25.31;48.98;100158.58;117412;1185;21854;-53
2022/05/14 07:18:54;;;;;;;5.80;4.10;;;;;;;25.59;49.09;100155.70;117399;1185;23545;-52
2022/05/14 07:21:28;;;;;;;4.70;3.70;;;;;;;25.77;48.73;100155.16;117364;1185;23738;-53
2022/05/14 07:23:56;;;;;;;4.40;3.40;;;;;;;25.82;48.58;100152.30;117335;1186;21873;-53
2022/05/14 07:26:27;;;;;;;5.20;3.50;;;;;;;25.92;48.59;100150.60;117445;1186;23567;-54
2022/05/14 07:28:56;;;;;;;5.50;3.70;;;;;;;26.08;48.67;100146.58;117369;1183;21852;-53
2022/05/14 07:31:24;;;;;;;7.20;3.60;;;;;;;26.34;48.86;100144.52;117493;1185;24159;-54
2022/05/14 07:33:53;;;;;;;3.90;3.20;;;;;;;26.59;48.75;100140.35;117287;1186;23545;-53
2022/05/14 07:36:22;;;;;;;4.40;2.90;;;;;;;26.77;48.53;100140.98;117350;1186;22918;-54
2022/05/14 07:38:50;;;;;;;3.80;2.40;;;;;;;26.84;48.32;100142.77;117195;1187;24182;-55
2022/05/14 07:41:19;;;;;;;5.30;2.60;;;;;;;26.93;48.29;100141.86;117325;1186;23584;-54
2022/05/14 07:43:49;;;;;;;5.00;2.80;;;;;;;27.08;48.36;100149.52;117402;1186;24147;-54
2022/05/14 07:46:20;;;;;;;3.90;2.60;;;;;;;27.31;48.29;100152.62;117486;1181;22895;-54
2022/05/14 07:48:48;;;;;;;4.00;2.70;;;;;;;27.44;48.28;100151.52;117494;1185;22620;-54
2022/05/14 07:51:16;;;;;;;2.90;2.40;;;;;;;27.62;48.14;100147.83;117475;1185;23663;-54
2022/05/14 07:53:45;;;;;;;4.90;2.70;;;;;;;27.78;47.95;100148.60;117464;1186;23557;-54
2022/05/14 07:56:14;;;;;;;4.90;3.00;;;;;;;27.87;47.85;100149.36;117408;1186;24266;-54
2022/05/14 07:58:43;;;;;;;6.80;3.10;;;;;;;27.88;47.54;100147.71;117500;1185;21843;-54
2022/05/14 08:01:11;;;;;;;3.90;2.60;;;;;;;27.86;47.74;100148.62;117345;1183;21858;-54
2022/05/14 08:03:41;;;;;;;3.80;2.60;;;;;;;27.88;47.56;100150.34;117421;1186;23537;-53
2022/05/14 08:06:11;;;;;;;4.20;2.70;;;;;;;27.88;47.33;100158.14;117332;1185;21855;-55
2022/05/14 08:08:39;;;;;;;4.40;2.70;;;;;;;27.83;47.31;100157.30;117331;1184;21999;-54
2022/05/14 08:11:08;;;;;;;5.00;2.30;;;;;;;27.74;47.19;100157.75;117440;1185;23541;-54
2022/05/14 08:13:36;;;;;;;3.20;2.20;;;;;;;27.71;46.98;100157.14;117491;1186;24194;-56
2022/05/14 08:16:05;;;;;;;6.20;2.50;;;;;;;27.57;46.88;100158.72;117537;1185;23432;-54
2022/05/14 08:18:34;;;;;;;2.90;2.60;;;;;;;27.34;46.86;100162.84;117442;1186;23640;-55
2022/05/14 08:26:41;;;;;;;4.60;2.50;;;;;;;27.34;47.12;100158.36;117361;1185;22807;-56
2022/05/14 08:29:11;;;;;;;5.10;3.20;;;;;;;27.49;47.17;100155.63;117340;1185;24146;-56
2022/05/14 08:31:40;;;;;;;5.30;3.80;;;;;;;27.48;46.66;100159.70;117442;1185;23616;-56
2022/05/14 08:34:09;;;;;;;4.90;2.90;;;;;;;27.33;46.69;100162.13;117298;1185;23579;-56
2022/05/14 08:36:38;;;;;;;4.20;2.80;;;;;;;27.35;47.02;100159.12;117303;1186;22825;-54
2022/05/14 08:39:08;;;;;;;4.50;3.00;;;;;;;27.49;47.06;100159.39;117344;1186;21860;-54
2022/05/14 08:41:39;;;;;;;4.00;2.60;;;;;;;27.64;47.14;100154.35;117346;1186;24162;-56
2022/05/14 08:44:11;;;;;;;3.90;3.10;;;;;;;27.82;47.28;100155.44;117325;1186;21859;-56
2022/05/14 08:46:53;;;;;;;4.50;2.70;;;;;;;28.08;47.30;100156.36;117158;1186;22910;-56
2022/05/14 08:49:29;;;;;;;3.80;2.50;;;;;;;28.25;47.07;100157.05;117423;1185;23718;-54
2022/05/14 08:51:59;;;;;;;5.30;2.50;;;;;;;28.30;46.61;100159.48;117320;1186;23545;-55
2022/05/14 08:54:28;;;;;;;4.10;2.40;;;;;;;28.25;46.51;100159.64;117362;1185;21859;-56
2022/05/14 08:57:04;;;;;;;4.30;2.60;;;;;;;28.24;46.44;100160.59;117404;1186;21865;-56
2022/05/14 08:59:36;;;;;;;3.50;2.40;;;;;;;28.25;46.35;100158.00;117369;1186;24149;-54
2022/05/14 09:02:41;;;;;;;4.00;2.30;;;;;;;28.27;46.41;100157.02;117402;1184;21842;-56
2022/05/14 09:05:18;;;;;;;3.60;2.10;;;;;;;28.35;46.31;100159.96;117418;1185;22166;-56
2022/05/14 09:07:50;;;;;;;4.30;2.20;;;;;;;28.29;46.11;100165.91;117447;1185;22640;-56
2022/05/14 09:10:38;;;;;;;2.80;2.00;;;;;;;28.17;45.89;100165.86;117361;1185;21881;-54
2022/05/14 09:13:15;;;;;;;3.20;1.80;;;;;;;28.09;45.90;100160.60;117365;1189;21858;-55
2022/05/14 09:15:51;;;;;;;4.60;1.80;;;;;;;28.14;46.00;100165.92;117332;1186;22981;-55
2022/05/14 09:18:32;;;;;;;3.30;1.80;;;;;;;28.35;46.13;100158.33;117435;1186;21847;-55
2022/05/14 09:21:06;;;;;;;3.40;1.90;;;;;;;28.60;46.14;100162.77;117376;1184;21852;-54
2022/05/14 09:23:37;;;;;;;3.40;2.20;;;;;;;28.67;45.83;100155.96;117387;1185;22907;-56
2022/05/14 09:26:12;;;;;;;3.40;2.10;;;;;;;28.78;46.17;100156.55;117451;1185;23554;-56
2022/05/14 09:28:45;;;;;;;2.70;1.70;;;;;;;28.95;45.96;100152.48;117250;1186;22911;-55
2022/05/14 09:31:36;;;;;;;2.80;1.70;;;;;;;29.08;45.66;100158.13;117295;1188;21852;-57
2022/05/14 09:34:12;;;;;;;2.80;2.00;;;;;;;29.17;45.57;100153.11;117441;1184;23553;-55
2022/05/14 09:36:43;;;;;;;2.70;1.80;;;;;;;29.40;45.62;100151.55;117353;1186;23742;-56
2022/05/14 09:39:15;;;;;;;3.20;1.80;;;;;;;29.55;45.49;100153.60;117340;1185;22916;-55
2022/05/14 09:41:49;;;;;;;3.60;1.80;;;;;;;29.56;45.19;100151.73;117392;1185;22639;-55
2022/05/14 09:44:22;;;;;;;2.50;1.60;;;;;;;29.58;45.24;100154.70;117369;1186;22899;-54
2022/05/14 09:47:03;;;;;;;3.00;2.00;;;;;;;29.61;44.83;100154.45;117310;1186;22827;-55
2022/05/14 09:49:33;;;;;;;3.70;1.70;;;;;;;29.46;44.48;100152.98;117324;1185;24173;-55
2022/05/14 09:52:04;;;;;;;6.00;2.40;;;;;;;29.39;44.75;100152.55;117419;1179;21851;-55
2022/05/14 09:54:38;;;;;;;2.90;1.90;;;;;;;29.41;44.80;100156.72;117418;1185;21848;-55
2022/05/14 09:57:39;;;;;;;6.40;2.20;;;;;;;29.51;44.61;100152.81;117448;1184;21867;-55
2022/05/14 10:00:36;;;;;;;3.50;2.30;;;;;;;29.49;44.38;100156.10;117418;1184;23653;-56
2022/05/14 10:03:16;;;;;;;4.20;2.20;;;;;;;29.42;44.29;100157.71;117387;1186;21866;-56
2022/05/14 10:05:52;;;;;;;3.60;1.70;;;;;;;29.38;44.20;100157.33;117271;1186;23082;-55
2022/05/14 10:08:39;;;;;;;4.40;1.60;;;;;;;29.42;44.24;100159.50;117379;1185;23568;-55
2022/05/14 10:11:18;;;;;;;4.60;2.20;;;;;;;29.51;44.27;100159.91;117561;1185;22918;-55
2022/05/14 10:13:55;;;;;;;19.60;3.60;;;;;;;29.62;44.28;100159.92;117438;1186;21840;-55
2022/05/14 10:16:36;;;;;;;11.70;3.00;;;;;;;29.63;43.90;100162.02;117441;1186;22528;-55
2022/05/14 10:19:04;;;;;;;17.90;3.10;;;;;;;29.43;43.07;100156.50;117406;1185;21890;-56
2022/05/14 10:21:42;;;;;;;3.80;2.10;;;;;;;29.12;42.92;100154.39;117292;1186;23548;-56
2022/05/14 10:27:25;;;;;;;3.60;2.30;;;;;;;29.06;43.44;100151.33;117356;1185;23547;-56
2022/05/14 10:30:02;;;;;;;10.70;2.20;;;;;;;28.92;43.35;100158.91;117259;1186;23449;-55
2022/05/14 10:32:32;;;;;;;7.40;2.50;;;;;;;28.83;43.54;100159.27;117367;1185;23676;-55
2022/05/14 10:35:24;;;;;;;3.90;2.60;;;;;;;28.80;43.41;100157.66;117492;1185;23545;-55
2022/05/14 10:38:02;;;;;;;4.50;2.20;;;;;;;28.83;43.29;100152.20;117490;1186;21963;-55
2022/05/14 10:40:34;;;;;;;7.20;2.60;;;;;;;28.80;43.25;100149.17;117450;1184;23560;-55
2022/05/14 10:43:25;;;;;;;7.30;2.70;;;;;;;28.83;43.39;100143.90;117422;1186;21853;-54
2022/05/14 10:45:56;;;;;;;7.20;2.50;;;;;;;29.01;43.50;100141.79;117269;1186;21904;-58
2022/05/14 10:48:37;;;;;;;5.90;2.90;;;;;;;29.24;43.24;100142.95;117451;1185;21871;-56
2022/05/14 10:51:07;;;;;;;4.70;3.00;;;;;;;29.38;43.17;100148.16;117281;1186;21859;-55
2022/05/14 10:53:39;;;;;;;4.60;2.50;;;;;;;29.41;42.91;100146.77;117521;1186;23647;-55
2022/05/14 10:56:13;;;;;;;4.40;2.00;;;;;;;29.37;42.89;100145.13;117402;1185;23479;-54
2022/05/14 10:59:01;;;;;;;4.80;2.70;;;;;;;29.41;42.80;100143.31;117304;1185;21862;-54
2022/05/14 11:01:48;;;;;;;4.60;2.50;;;;;;;29.37;42.72;100146.05;117451;1185;21858;-57
2022/05/14 11:04:18;;;;;;;5.90;2.70;;;;;;;29.38;42.88;100141.08;117417;1186;23541;-57
2022/05/14 11:07:08;;;;;;;4.30;1.90;;;;;;;29.48;42.98;100146.80;117392;1185;22950;-56
2022/05/14 11:09:39;;;;;;;3.00;2.40;;;;;;;29.62;42.77;100141.48;117305;1185;21859;-56
2022/05/14 11:12:11;;;;;;;7.10;2.60;;;;;;;29.80;42.40;100140.33;117497;1187;21967;-56
2022/05/14 11:14:51;;;;;;;4.20;2.30;;;;;;;29.82;41.74;100140.36;117433;1186;22727;-56
2022/05/14 11:17:29;;;;;;;6.40;2.90;;;;;;;29.60;41.48;100141.02;117351;1185;21853;-57
2022/05/14 11:20:13;;;;;;;6.40;2.20;;;;;;;29.27;41.10;100144.06;117422;1184;24207;-56
2022/05/14 11:22:44;;;;;;;8.50;2.30;;;;;;;29.07;41.72;100149.20;117305;1186;21855;-56
2022/05/14 11:25:21;;;;;;;4.50;2.10;;;;;;;29.07;41.97;100145.02;117388;1186;21881;-53
2022/05/14 11:27:57;;;;;;;5.20;2.10;;;;;;;29.27;41.96;100141.02;117215;1185;23005;-56
2022/05/14 11:30:32;;;;;;;5.90;2.50;;;;;;;29.46;41.61;100145.16;117297;1185;23446;-56
2022/05/14 11:33:00;;;;;;;3.90;1.80;;;;;;;29.66;41.78;100141.45;117443;1186;23560;-55
2022/05/14 11:35:42;;;;;;;5.20;2.60;;;;;;;29.77;41.29;100145.89;117491;1186;23550;-55
2022/05/14 11:38:23;;;;;;;5.40;2.20;;;;;;;29.77;41.07;100143.69;117493;1186;21845;-54
2022/05/14 11:41:08;;;;;;;5.00;2.10;;;;;;;29.73;41.02;100143.73;117476;1185;22288;-55
2022/05/14 11:43:39;;;;;;;4.90;1.80;;;;;;;29.71;40.63;100138.11;117319;1186;23571;-54
2022/05/14 11:46:52;;;;;;;5.40;2.00;;;;;;;29.74;40.90;100138.39;117627;1184;22912;-54
2022/05/14 11:49:31;;;;;;;3.60;1.80;;;;;;;29.82;40.97;100137.98;117264;1185;23545;-53
2022/05/14 11:52:31;;;;;;;3.00;1.50;;;;;;;30.10;41.14;100140.13;117411;1185;22934;-55
2022/05/14 11:55:20;;;;;;;5.70;1.80;;;;;;;30.29;40.78;100136.98;117405;1185;23634;-55
2022/05/14 11:57:55;;;;;;;3.70;1.70;;;;;;;30.24;40.59;100140.94;117368;1186;23640;-54
2022/05/14 12:00:28;;;;;;;4.70;1.70;;;;;;;30.16;40.21;100137.77;117355;1185;21971;-55
2022/05/14 12:03:24;;;;;;;3.80;1.40;;;;;;;29.99;39.98;100141.80;117541;1186;23435;-56